createdAt,value
2022-09-11T00:00:56.515Z,2.60
2022-09-11T00:03:24.953Z,4.70
2022-09-11T00:05:53.939Z,5.03
2022-09-11T00:08:22.683Z,3.77
2022-09-11T00:10:50.392Z,2.77
2022-09-11T00:13:21.179Z,3.00
2022-09-11T00:15:51.934Z,3.37
2022-09-11T00:18:22.314Z,7.33
2022-09-11T00:20:53.675Z,3.57
2022-09-11T00:23:24.423Z,5.50
2022-09-11T00:25:53.090Z,4.07
2022-09-11T00:28:22.680Z,3.37
2022-09-11T00:30:59.875Z,3.57
2022-09-11T00:33:28.533Z,6.97
2022-09-11T00:35:58.976Z,2.13
2022-09-11T00:38:28.993Z,3.00
2022-09-11T00:40:59.166Z,2.47
2022-09-11T00:43:27.263Z,3.10
2022-09-11T00:45:58.589Z,1.90
2022-09-11T00:48:29.918Z,2.53
2022-09-11T00:50:59.429Z,1.40
2022-09-11T00:53:31.700Z,2.50
2022-09-11T00:56:05.359Z,1.50
2022-09-11T00:58:37.884Z,2.37
2022-09-11T01:01:06.082Z,3.53
2022-09-11T01:03:33.844Z,2.50
2022-09-11T01:06:01.979Z,3.00
2022-09-11T01:08:33.416Z,1.97
2022-09-11T01:11:14.171Z,3.30
2022-09-11T01:13:52.747Z,3.67
2022-09-11T01:16:26.035Z,3.60
2022-09-11T01:19:00.999Z,4.90
2022-09-11T01:21:52.340Z,4.53
2022-09-11T01:25:06.030Z,4.20
2022-09-11T01:27:41.782Z,1.90
2022-09-11T01:30:13.003Z,3.93
2022-09-11T01:32:49.659Z,3.03
2022-09-11T01:35:22.965Z,4.60
2022-09-11T01:38:00.762Z,2.97
2022-09-11T01:40:37.250Z,3.37
2022-09-11T01:43:12.831Z,2.00
2022-09-11T01:45:44.203Z,3.10
2022-09-11T01:48:17.080Z,3.77
2022-09-11T01:50:47.407Z,4.30
2022-09-11T01:53:18.740Z,2.27
2022-09-11T01:55:51.979Z,4.80
2022-09-11T01:58:27.149Z,4.30
2022-09-11T02:00:57.814Z,5.17
2022-09-11T02:03:32.355Z,6.93
2022-09-11T02:06:05.413Z,2.87
2022-09-11T02:08:40.038Z,3.93
2022-09-11T02:11:10.175Z,2.90
2022-09-11T02:13:46.854Z,4.50
2022-09-11T02:16:20.723Z,2.60
2022-09-11T02:18:57.606Z,2.73
2022-09-11T02:21:25.914Z,3.43
2022-09-11T02:23:55.347Z,3.00
2022-09-11T02:26:25.536Z,10.23
2022-09-11T02:28:55.564Z,4.73
2022-09-11T02:31:24.138Z,4.33
2022-09-11T02:33:52.146Z,4.80
2022-09-11T02:36:59.567Z,4.97
2022-09-11T02:40:00.214Z,4.70
2022-09-11T02:42:40.118Z,5.90
2022-09-11T02:45:24.554Z,2.50
2022-09-11T02:48:05.139Z,3.03
2022-09-11T02:50:41.372Z,5.30
2022-09-11T02:53:26.401Z,5.07
2022-09-11T02:56:01.593Z,3.93
2022-09-11T02:58:34.077Z,5.10
2022-09-11T03:01:04.398Z,5.23
2022-09-11T03:03:38.910Z,4.73
2022-09-11T03:06:09.078Z,3.20
2022-09-11T03:08:36.789Z,3.27
2022-09-11T03:11:04.485Z,3.23
2022-09-11T03:13:32.422Z,4.57
2022-09-11T03:16:03.200Z,2.93
2022-09-11T03:18:30.922Z,5.30
2022-09-11T03:20:58.675Z,5.03
2022-09-11T03:23:26.384Z,3.50
2022-09-11T03:25:54.899Z,3.77
2022-09-11T03:28:23.482Z,3.30
2022-09-11T03:30:52.761Z,4.37
2022-09-11T03:33:22.330Z,3.60
2022-09-11T03:35:49.942Z,4.70
2022-09-11T03:38:17.869Z,3.40
2022-09-11T03:40:45.755Z,4.93
2022-09-11T03:43:13.431Z,2.30
2022-09-11T03:45:41.127Z,8.37
2022-09-11T03:48:08.838Z,3.37
2022-09-11T03:50:37.813Z,4.27
2022-09-11T03:53:05.498Z,6.60
2022-09-11T03:55:33.488Z,3.40
2022-09-11T03:58:01.204Z,3.30
2022-09-11T04:00:28.886Z,4.63
2022-09-11T04:02:56.667Z,4.30
2022-09-11T04:05:25.422Z,3.67
2022-09-11T04:07:55.079Z,4.30
2022-09-11T04:10:22.800Z,8.83
2022-09-11T04:12:50.460Z,4.60
2022-09-11T04:15:18.167Z,8.30
2022-09-11T04:17:46.151Z,6.77
2022-09-11T04:20:14.012Z,8.30
2022-09-11T04:22:42.036Z,9.00
2022-09-11T04:25:12.416Z,6.30
2022-09-11T04:27:40.395Z,8.77
2022-09-11T04:30:09.378Z,6.30
2022-09-11T04:32:37.041Z,6.00
2022-09-11T04:35:04.976Z,5.33
2022-09-11T04:37:35.309Z,10.70
2022-09-11T04:40:03.584Z,5.63
2022-09-11T04:42:32.649Z,6.73
2022-09-11T04:45:00.311Z,4.00
2022-09-11T04:47:27.950Z,6.30
2022-09-11T04:49:55.584Z,5.50
2022-09-11T04:52:23.280Z,9.43
2022-09-11T04:54:51.146Z,4.70
2022-09-11T04:57:18.807Z,6.43
2022-09-11T04:59:48.527Z,6.20
2022-09-11T05:02:16.405Z,4.40
2022-09-11T05:04:44.110Z,8.97
2022-09-11T05:07:13.377Z,6.57
2022-09-11T05:09:41.114Z,7.10
2022-09-11T05:12:09.390Z,5.03
2022-09-11T05:14:37.868Z,8.60
2022-09-11T05:17:06.903Z,6.23
2022-09-11T05:19:34.585Z,10.00
2022-09-11T05:22:02.283Z,6.73
2022-09-11T05:24:29.929Z,7.30
2022-09-11T05:26:58.849Z,7.00
2022-09-11T05:29:32.215Z,7.13
2022-09-11T05:32:00.612Z,11.27
2022-09-11T05:34:30.365Z,5.73
2022-09-11T05:36:58.501Z,6.10
2022-09-11T05:39:26.359Z,6.53
2022-09-11T05:41:55.278Z,6.40
2022-09-11T05:44:23.009Z,7.27
2022-09-11T05:46:50.745Z,7.10
2022-09-11T05:49:19.395Z,6.47
2022-09-11T05:51:48.365Z,5.80
2022-09-11T05:54:16.319Z,4.97
2022-09-11T05:56:44.001Z,8.00
2022-09-11T05:59:14.957Z,7.60
2022-09-11T06:01:43.026Z,8.03
2022-09-11T06:04:12.169Z,6.53
2022-09-11T06:06:39.892Z,11.67
2022-09-11T06:09:09.253Z,8.47
2022-09-11T06:11:36.974Z,8.33
2022-09-11T06:14:04.961Z,6.70
2022-09-11T06:16:32.713Z,8.87
2022-09-11T06:19:00.401Z,8.10
2022-09-11T06:21:29.226Z,6.80
2022-09-11T06:23:56.925Z,5.87
2022-09-11T06:26:27.502Z,8.33
2022-09-11T06:28:55.606Z,9.53
2022-09-11T06:31:25.507Z,6.40
2022-09-11T06:33:53.617Z,9.60
2022-09-11T06:36:24.395Z,14.60
2022-09-11T06:38:54.865Z,12.50
2022-09-11T06:41:22.786Z,12.83
2022-09-11T06:43:52.065Z,8.37
2022-09-11T06:46:21.416Z,7.37
2022-09-11T06:48:50.691Z,8.27
2022-09-11T06:51:22.938Z,7.03
2022-09-11T06:53:58.655Z,7.80
2022-09-11T06:56:27.886Z,14.60
2022-09-11T06:58:57.193Z,8.03
2022-09-11T07:01:25.643Z,10.10
2022-09-11T07:03:55.423Z,11.70
2022-09-11T07:06:24.834Z,7.90
2022-09-11T07:08:53.293Z,9.23
2022-09-11T07:11:21.441Z,9.40
2022-09-11T07:13:49.348Z,9.13
2022-09-11T07:16:19.885Z,10.37
2022-09-11T07:18:48.888Z,7.83
2022-09-11T07:21:20.930Z,11.40
2022-09-11T07:23:51.971Z,9.07
2022-09-11T07:26:19.933Z,9.40
2022-09-11T07:28:50.165Z,7.10
2022-09-11T07:31:21.376Z,6.90
2022-09-11T07:33:50.420Z,7.80
2022-09-11T07:36:19.928Z,10.30
2022-09-11T07:38:49.574Z,9.50
2022-09-11T07:41:19.909Z,9.67
2022-09-11T07:43:48.243Z,10.23
2022-09-11T07:46:16.537Z,12.33
2022-09-11T07:48:47.504Z,9.73
2022-09-11T07:51:17.146Z,10.43
2022-09-11T07:53:46.632Z,9.20
2022-09-11T07:56:15.873Z,8.60
2022-09-11T07:58:44.342Z,12.83
2022-09-11T08:01:14.419Z,13.50
2022-09-11T08:03:43.430Z,10.97
2022-09-11T08:06:16.885Z,8.27
2022-09-11T08:08:48.978Z,17.63
2022-09-11T08:11:19.055Z,11.07
2022-09-11T08:13:50.759Z,9.90
2022-09-11T08:16:19.570Z,11.77
2022-09-11T08:18:48.113Z,10.27
2022-09-11T08:21:17.654Z,9.47
2022-09-11T08:23:46.889Z,12.07
2022-09-11T08:26:16.522Z,7.77
2022-09-11T08:28:45.077Z,9.47
2022-09-11T08:31:14.200Z,9.53
2022-09-11T08:33:42.098Z,12.57
2022-09-11T08:36:14.634Z,9.33
2022-09-11T08:38:44.548Z,9.60
2022-09-11T08:41:20.757Z,12.83
2022-09-11T08:43:52.341Z,10.67
2022-09-11T08:46:24.950Z,10.40
2022-09-11T08:49:02.373Z,10.40
2022-09-11T08:51:31.495Z,11.03
2022-09-11T08:54:02.454Z,10.17
2022-09-11T08:56:33.550Z,12.33
2022-09-11T08:59:19.998Z,16.20
2022-09-11T09:01:57.619Z,10.27
2022-09-11T09:04:45.468Z,10.37
2022-09-11T09:07:22.851Z,8.00
2022-09-11T09:10:04.202Z,9.23
2022-09-11T09:12:41.375Z,9.10
2022-09-11T09:15:32.620Z,9.00
2022-09-11T09:18:07.149Z,8.40
2022-09-11T09:20:38.558Z,7.23
2022-09-11T09:23:14.834Z,6.90
2022-09-11T09:25:44.619Z,8.90
2022-09-11T09:28:20.968Z,7.87
2022-09-11T09:30:52.829Z,7.80
2022-09-11T09:33:30.783Z,7.13
2022-09-11T09:36:01.315Z,6.87
2022-09-11T09:38:31.423Z,8.73
2022-09-11T09:41:34.738Z,7.50
2022-09-11T09:44:08.299Z,7.50
2022-09-11T09:46:41.732Z,8.13
2022-09-11T09:49:11.629Z,10.00
2022-09-11T09:51:40.522Z,9.40
2022-09-11T09:54:14.021Z,11.03
2022-09-11T09:56:49.377Z,10.03
2022-09-11T09:59:23.880Z,7.27
2022-09-11T10:01:55.093Z,9.73
2022-09-11T10:04:24.324Z,8.33
2022-09-11T10:06:54.128Z,10.20
2022-09-11T10:09:28.137Z,11.07
2022-09-11T10:12:03.005Z,8.23
2022-09-11T10:17:23.191Z,9.80
2022-09-11T10:19:52.831Z,8.20
2022-09-11T10:22:38.613Z,8.47
2022-09-11T10:25:12.349Z,10.87
2022-09-11T10:27:56.277Z,11.70
2022-09-11T10:30:28.044Z,8.03
2022-09-11T10:33:00.077Z,10.17
2022-09-11T10:35:32.898Z,8.87
2022-09-11T10:38:07.051Z,14.13
2022-09-11T10:40:34.788Z,12.10
2022-09-11T10:43:03.857Z,13.97
2022-09-11T10:45:33.262Z,10.77
2022-09-11T10:48:15.850Z,10.00
2022-09-11T10:50:44.899Z,7.57
2022-09-11T10:53:21.332Z,11.60
2022-09-11T10:55:57.744Z,7.83
2022-09-11T10:58:31.272Z,8.50
2022-09-11T11:00:58.948Z,9.10
2022-09-11T11:03:28.333Z,10.10
2022-09-11T11:06:16.442Z,10.17
2022-09-11T11:09:02.235Z,8.77
2022-09-11T11:11:46.075Z,7.40
2022-09-11T11:14:37.862Z,7.13
2022-09-11T11:17:16.850Z,8.03
2022-09-11T11:19:58.070Z,7.60
2022-09-11T11:22:45.668Z,9.03
2022-09-11T11:25:22.849Z,7.47
2022-09-11T11:28:11.759Z,9.60
2022-09-11T11:30:49.142Z,11.77
2022-09-11T11:33:42.697Z,8.30
2022-09-11T11:36:15.714Z,7.57
2022-09-11T11:38:48.462Z,8.60
2022-09-11T11:41:23.348Z,8.30
2022-09-11T11:43:54.086Z,7.33
2022-09-11T11:46:28.482Z,6.93
2022-09-11T11:49:01.077Z,6.77
2022-09-11T11:51:32.349Z,7.27
2022-09-11T11:54:06.648Z,6.50
2022-09-11T11:56:40.796Z,5.20
2022-09-11T11:59:16.277Z,6.70
2022-09-11T12:01:48.160Z,8.50
2022-09-11T12:04:30.964Z,5.40
2022-09-11T12:07:00.295Z,6.77
2022-09-11T12:09:33.609Z,7.30
2022-09-11T12:12:07.411Z,9.60
2022-09-11T12:14:35.264Z,7.00
2022-09-11T12:17:21.055Z,6.43
2022-09-11T12:20:17.559Z,6.23
2022-09-11T12:22:46.815Z,5.77
2022-09-11T12:25:53.597Z,5.30
2022-09-11T12:28:24.165Z,5.83
2022-09-11T12:30:59.276Z,6.00
2022-09-11T12:33:57.991Z,6.83
2022-09-11T12:36:37.289Z,5.77
2022-09-11T12:39:24.007Z,6.13
2022-09-11T12:41:51.782Z,5.90
2022-09-11T12:44:52.198Z,7.00
2022-09-11T12:47:23.338Z,11.43
2022-09-11T12:49:59.939Z,7.70
2022-09-11T12:52:47.875Z,7.60
2022-09-11T12:55:33.560Z,8.07
2022-09-11T12:58:04.961Z,15.20
2022-09-11T13:00:37.829Z,10.93
2022-09-11T13:03:08.064Z,7.80
2022-09-11T13:05:40.851Z,9.80
2022-09-11T13:08:16.520Z,8.03
2022-09-11T13:10:46.715Z,9.83
2022-09-11T13:13:44.573Z,9.53
2022-09-11T13:16:19.585Z,8.00
2022-09-11T13:18:47.387Z,6.90
2022-09-11T13:21:22.120Z,12.73
2022-09-11T13:23:50.983Z,8.33
2022-09-11T13:26:26.162Z,6.43
2022-09-11T13:28:57.510Z,11.50
2022-09-11T13:31:33.770Z,9.23
2022-09-11T13:34:04.661Z,9.07
2022-09-11T13:36:37.332Z,6.10
2022-09-11T13:39:06.086Z,8.10
2022-09-11T13:41:37.868Z,9.37
2022-09-11T13:44:11.279Z,10.80
2022-09-11T13:46:51.078Z,6.83
2022-09-11T13:49:30.387Z,8.77
2022-09-11T13:52:00.135Z,7.63
2022-09-11T13:54:31.859Z,8.50
2022-09-11T13:57:16.124Z,8.17
2022-09-11T13:59:49.446Z,12.00
2022-09-11T14:02:48.375Z,9.60
2022-09-11T14:05:20.533Z,8.23
2022-09-11T14:07:58.318Z,7.40
2022-09-11T14:10:29.314Z,9.50
2022-09-11T14:13:04.242Z,11.77
2022-09-11T14:15:40.246Z,10.00
2022-09-11T14:18:15.114Z,7.80
2022-09-11T14:20:46.089Z,6.47
2022-09-11T14:23:20.850Z,6.60
2022-09-11T14:26:14.706Z,5.77
2022-09-11T14:28:46.841Z,6.13
2022-09-11T14:31:29.366Z,7.67
2022-09-11T14:34:16.148Z,8.97
2022-09-11T14:36:47.179Z,9.33
2022-09-11T14:39:24.337Z,8.90
2022-09-11T14:41:53.228Z,5.37
2022-09-11T14:44:22.150Z,7.30
2022-09-11T14:46:50.239Z,6.50
2022-09-11T14:49:18.018Z,7.70
2022-09-11T14:51:51.348Z,8.90
2022-09-11T14:54:22.207Z,5.93
2022-09-11T14:56:50.305Z,5.47
2022-09-11T14:59:17.954Z,7.40
2022-09-11T15:01:45.871Z,6.80
2022-09-11T15:04:20.413Z,6.03
2022-09-11T15:06:51.411Z,9.90
2022-09-11T15:09:20.656Z,6.17
2022-09-11T15:11:50.430Z,8.37
2022-09-11T15:14:32.519Z,6.87
2022-09-11T15:17:08.627Z,5.10
2022-09-11T15:19:38.026Z,6.87
2022-09-11T15:22:06.900Z,5.73
2022-09-11T15:24:36.311Z,6.13
2022-09-11T15:27:04.804Z,5.47
2022-09-11T15:29:34.471Z,7.00
2022-09-11T15:32:03.485Z,7.43
2022-09-11T15:34:32.463Z,6.57
2022-09-11T15:37:00.372Z,7.93
2022-09-11T15:39:28.093Z,5.77
2022-09-11T15:41:57.359Z,5.80
2022-09-11T15:44:27.036Z,5.37
2022-09-11T15:46:56.417Z,8.40
2022-09-11T15:49:28.101Z,8.80
2022-09-11T15:51:56.361Z,7.93
2022-09-11T15:54:24.314Z,5.87
2022-09-11T15:56:52.876Z,6.30
2022-09-11T15:59:21.905Z,8.37
2022-09-11T16:01:50.089Z,10.47
2022-09-11T16:04:21.950Z,6.50
2022-09-11T16:06:50.451Z,5.70
2022-09-11T16:09:19.610Z,6.47
2022-09-11T16:11:48.813Z,6.70
2022-09-11T16:14:18.681Z,5.70
2022-09-11T16:16:48.040Z,7.93
2022-09-11T16:19:15.812Z,7.70
2022-09-11T16:21:43.646Z,13.30
2022-09-11T16:24:14.661Z,6.40
2022-09-11T16:26:43.033Z,6.13
2022-09-11T16:29:12.647Z,7.10
2022-09-11T16:31:40.783Z,7.23
2022-09-11T16:34:10.102Z,6.73
2022-09-11T16:36:39.276Z,7.13
2022-09-11T16:39:08.978Z,6.77
2022-09-11T16:41:37.800Z,8.40
2022-09-11T16:44:07.581Z,7.10
2022-09-11T16:46:36.257Z,7.13
2022-09-11T16:49:04.681Z,11.70
2022-09-11T16:51:35.290Z,6.80
2022-09-11T16:54:04.111Z,8.70
2022-09-11T16:56:31.832Z,6.83
2022-09-11T16:58:59.565Z,8.00
2022-09-11T17:01:28.500Z,7.40
2022-09-11T17:03:58.162Z,8.40
2022-09-11T17:06:32.207Z,7.17
2022-09-11T17:09:03.161Z,9.00
2022-09-11T17:11:33.125Z,8.60
2022-09-11T17:14:02.464Z,8.00
2022-09-11T17:16:32.242Z,6.40
2022-09-11T17:19:01.662Z,7.47
2022-09-11T17:21:30.541Z,7.07
2022-09-11T17:23:58.610Z,9.10
2022-09-11T17:26:27.639Z,10.60
2022-09-11T17:28:56.095Z,10.60
2022-09-11T17:31:23.922Z,10.30
2022-09-11T17:33:51.618Z,8.80
2022-09-11T17:36:22.221Z,7.90
2022-09-11T17:38:52.561Z,13.70
2022-09-11T17:41:21.903Z,11.37
2022-09-11T17:46:28.247Z,7.80
2022-09-11T17:48:56.325Z,7.43
2022-09-11T17:51:27.828Z,9.30
2022-09-11T17:53:57.216Z,12.47
2022-09-11T17:56:26.955Z,6.90
2022-09-11T17:58:59.513Z,11.20
2022-09-11T18:01:28.616Z,8.00
2022-09-11T18:03:58.274Z,7.53
2022-09-11T18:06:28.431Z,10.07
2022-09-11T18:09:01.899Z,11.27
2022-09-11T18:11:29.883Z,10.67
2022-09-11T18:14:00.506Z,11.40
2022-09-11T18:16:28.323Z,9.37
2022-09-11T18:18:56.596Z,9.60
2022-09-11T18:21:25.832Z,11.07
2022-09-11T18:23:54.629Z,9.53
2022-09-11T18:26:23.644Z,12.60
2022-09-11T18:28:51.650Z,8.40
2022-09-11T18:31:20.810Z,10.70
2022-09-11T18:33:54.636Z,9.70
2022-09-11T18:36:23.486Z,16.37
2022-09-11T18:38:51.655Z,10.40
2022-09-11T18:41:19.419Z,11.43
2022-09-11T18:43:47.086Z,9.63
2022-09-11T18:46:14.765Z,8.60
2022-09-11T18:48:45.661Z,12.30
2022-09-11T18:51:15.284Z,12.10
2022-09-11T18:53:43.880Z,14.10
2022-09-11T18:56:12.018Z,11.83
2022-09-11T18:58:41.055Z,12.20
2022-09-11T19:01:11.428Z,16.97
2022-09-11T19:03:42.087Z,11.03
2022-09-11T19:06:14.154Z,14.13
2022-09-11T19:08:43.308Z,12.90
2022-09-11T19:11:13.245Z,11.20
2022-09-11T19:13:42.235Z,13.00
2022-09-11T19:16:10.550Z,10.40
2022-09-11T19:18:39.458Z,12.50
2022-09-11T19:21:10.250Z,11.03
2022-09-11T19:23:42.021Z,11.43
2022-09-11T19:26:12.773Z,9.67
2022-09-11T19:28:42.518Z,14.80
2022-09-11T19:31:13.847Z,12.70
2022-09-11T19:33:44.384Z,11.13
2022-09-11T19:36:15.026Z,13.77
2022-09-11T19:38:45.697Z,18.43
2022-09-11T19:41:15.363Z,11.30
2022-09-11T19:43:44.962Z,11.43
2022-09-11T19:46:15.144Z,11.03
2022-09-11T19:48:44.255Z,10.27
2022-09-11T19:51:16.081Z,12.07
2022-09-11T19:53:45.650Z,11.17
2022-09-11T19:56:13.670Z,10.43
2022-09-11T19:58:42.885Z,12.20
2022-09-11T20:01:12.389Z,10.80
2022-09-11T20:03:41.761Z,15.30
2022-09-11T20:06:11.046Z,11.80
2022-09-11T20:08:40.238Z,15.53
2022-09-11T20:11:09.431Z,12.40
2022-09-11T20:13:37.368Z,12.40
2022-09-11T20:16:05.938Z,13.77
2022-09-11T20:18:33.726Z,13.80
2022-09-11T20:21:03.108Z,11.00
2022-09-11T20:23:30.882Z,12.17
2022-09-11T20:26:12.532Z,10.10
2022-09-11T20:28:42.870Z,10.03
2022-09-11T20:31:14.917Z,12.27
2022-09-11T20:33:43.271Z,11.20
2022-09-11T20:36:11.104Z,16.83
2022-09-11T20:38:38.877Z,14.63
2022-09-11T20:41:07.908Z,10.90
2022-09-11T20:43:37.369Z,13.50
2022-09-11T20:46:05.470Z,10.40
2022-09-11T20:48:33.644Z,15.50
2022-09-11T20:51:04.841Z,11.80
2022-09-11T20:53:32.713Z,11.53
2022-09-11T20:56:05.448Z,12.87
2022-09-11T20:58:33.375Z,11.73
2022-09-11T21:01:02.994Z,12.07
2022-09-11T21:03:31.254Z,10.10
2022-09-11T21:06:05.971Z,14.40
2022-09-11T21:08:34.197Z,11.23
2022-09-11T21:11:02.987Z,21.40
2022-09-11T21:13:30.966Z,14.30
2022-09-11T21:15:58.712Z,12.77
2022-09-11T21:18:27.833Z,11.23
2022-09-11T21:20:56.854Z,11.67
2022-09-11T21:23:24.965Z,13.80
2022-09-11T21:25:52.984Z,16.50
2022-09-11T21:28:21.062Z,10.73
2022-09-11T21:30:48.836Z,12.40
2022-09-11T21:33:16.563Z,10.37
2022-09-11T21:35:52.317Z,12.07
2022-09-11T21:38:20.913Z,11.97
2022-09-11T21:40:48.723Z,12.93
2022-09-11T21:43:16.468Z,11.07
2022-09-11T21:45:44.228Z,12.73
2022-09-11T21:48:12.288Z,10.03
2022-09-11T21:50:40.371Z,12.30
2022-09-11T21:53:10.731Z,11.50
2022-09-11T21:55:39.580Z,12.13
2022-09-11T21:58:07.773Z,11.93
2022-09-11T22:00:42.578Z,12.13
2022-09-11T22:03:12.171Z,12.67
2022-09-11T22:05:40.899Z,14.37
2022-09-11T22:08:10.142Z,11.50
2022-09-11T22:10:42.151Z,12.70
2022-09-11T22:13:11.031Z,12.80
2022-09-11T22:15:41.639Z,10.87
2022-09-11T22:18:09.442Z,12.43
2022-09-11T22:20:38.004Z,13.30
2022-09-11T22:23:06.048Z,12.03
2022-09-11T22:25:36.927Z,10.83
2022-09-11T22:28:04.922Z,10.27
2022-09-11T22:30:34.096Z,14.57
2022-09-11T22:33:02.143Z,12.07
2022-09-11T22:35:29.858Z,10.97
2022-09-11T22:37:57.635Z,10.40
2022-09-11T22:40:25.297Z,12.90
2022-09-11T22:42:54.370Z,14.07
2022-09-11T22:45:22.100Z,9.90
2022-09-11T22:47:49.876Z,12.30
2022-09-11T22:50:17.567Z,14.30
2022-09-11T22:52:45.654Z,10.83
2022-09-11T22:55:13.366Z,11.80
2022-09-11T22:57:41.035Z,10.40
2022-09-11T23:00:13.052Z,10.90
2022-09-11T23:02:40.729Z,12.00
2022-09-11T23:05:27.016Z,13.50
2022-09-11T23:07:54.925Z,10.80
2022-09-11T23:10:23.608Z,12.07
2022-09-11T23:12:51.496Z,11.27
2022-09-11T23:15:22.707Z,11.53
2022-09-11T23:17:50.402Z,11.67
2022-09-11T23:20:18.789Z,13.07
2022-09-11T23:22:46.536Z,10.40
2022-09-11T23:25:14.973Z,13.37
2022-09-11T23:27:45.322Z,11.60
2022-09-11T23:30:13.462Z,13.53
2022-09-11T23:32:42.503Z,13.43
2022-09-11T23:35:10.782Z,13.00
2022-09-11T23:37:42.355Z,11.77
2022-09-11T23:40:13.303Z,10.50
2022-09-11T23:42:41.031Z,11.63
2022-09-11T23:45:12.661Z,11.60
2022-09-11T23:47:42.799Z,12.37
2022-09-11T23:50:11.049Z,9.90
2022-09-11T23:52:39.584Z,11.47
2022-09-11T23:55:08.353Z,10.17
2022-09-11T23:57:36.022Z,12.43
